createdAt,value
2023-09-28T00:00:35.710Z,13.00
2023-09-28T00:03:05.318Z,12.99
2023-09-28T00:05:32.825Z,12.98
2023-09-28T00:08:01.735Z,12.97
2023-09-28T00:10:32.810Z,12.97
2023-09-28T00:13:00.736Z,12.95
2023-09-28T00:15:27.628Z,12.93
2023-09-28T00:17:56.240Z,12.90
2023-09-28T00:20:24.754Z,12.87
2023-09-28T00:22:53.110Z,12.85
2023-09-28T00:25:23.233Z,12.81
2023-09-28T00:27:54.295Z,12.78
2023-09-28T00:30:23.685Z,12.77
2023-09-28T00:32:53.552Z,12.74
2023-09-28T00:35:21.341Z,12.70
2023-09-28T00:37:50.583Z,12.67
2023-09-28T00:40:19.756Z,12.65
2023-09-28T00:42:49.676Z,12.66
2023-09-28T00:45:18.855Z,12.64
2023-09-28T00:47:48.481Z,12.63
2023-09-28T00:50:16.841Z,12.63
2023-09-28T00:52:47.310Z,12.61
2023-09-28T00:55:16.607Z,12.61
2023-09-28T00:57:45.651Z,12.59
2023-09-28T01:00:19.583Z,12.58
2023-09-28T01:02:52.637Z,12.55
2023-09-28T01:05:19.913Z,12.53
2023-09-28T01:07:48.037Z,12.50
2023-09-28T01:10:21.179Z,12.48
2023-09-28T01:12:49.910Z,12.44
2023-09-28T01:15:17.978Z,12.41
2023-09-28T01:17:46.522Z,12.38
2023-09-28T01:20:19.502Z,12.38
2023-09-28T01:22:51.194Z,12.36
2023-09-28T01:25:20.521Z,12.36
2023-09-28T01:27:48.842Z,12.35
2023-09-28T01:30:17.111Z,12.34
2023-09-28T01:32:45.387Z,12.33
2023-09-28T01:35:12.672Z,12.33
2023-09-28T01:37:52.549Z,12.34
2023-09-28T01:40:19.983Z,12.34
2023-09-28T01:42:47.868Z,12.36
2023-09-28T01:45:15.854Z,12.38
2023-09-28T01:47:43.815Z,12.41
2023-09-28T01:50:11.556Z,12.43
2023-09-28T01:52:39.515Z,12.42
2023-09-28T01:55:08.304Z,12.40
2023-09-28T01:57:36.086Z,12.42
2023-09-28T02:00:06.621Z,12.42
2023-09-28T02:02:35.641Z,12.42
2023-09-28T02:05:04.027Z,12.43
2023-09-28T02:07:36.498Z,12.43
2023-09-28T02:10:04.943Z,12.44
2023-09-28T02:12:34.131Z,12.45
2023-09-28T02:15:06.256Z,12.42
2023-09-28T02:17:34.094Z,12.39
2023-09-28T02:20:01.006Z,12.36
2023-09-28T02:22:28.829Z,12.33
2023-09-28T02:24:55.885Z,12.32
2023-09-28T02:27:23.673Z,12.31
2023-09-28T02:29:51.836Z,12.31
2023-09-28T02:32:19.665Z,12.31
2023-09-28T02:34:46.522Z,12.32
2023-09-28T02:37:14.899Z,12.31
2023-09-28T02:39:42.320Z,12.31
2023-09-28T02:42:10.542Z,12.30
2023-09-28T02:44:37.440Z,12.29
2023-09-28T02:47:07.358Z,12.26
2023-09-28T02:49:34.404Z,12.24
2023-09-28T02:52:03.073Z,12.21
2023-09-28T02:54:30.927Z,12.18
2023-09-28T02:56:58.982Z,12.15
2023-09-28T02:59:27.781Z,12.10
2023-09-28T03:01:56.331Z,12.07
2023-09-28T03:04:25.395Z,12.05
2023-09-28T03:06:53.678Z,12.04
2023-09-28T03:09:21.121Z,12.03
2023-09-28T03:11:50.235Z,12.03
2023-09-28T03:14:17.885Z,12.01
2023-09-28T03:16:45.750Z,12.01
2023-09-28T03:19:12.627Z,12.02
2023-09-28T03:21:43.578Z,12.02
2023-09-28T03:24:10.456Z,12.01
2023-09-28T03:26:39.167Z,12.02
2023-09-28T03:29:06.102Z,12.03
2023-09-28T03:31:36.442Z,12.03
2023-09-28T03:34:03.287Z,12.03
2023-09-28T03:36:33.368Z,12.04
2023-09-28T03:39:02.583Z,12.05
2023-09-28T03:41:32.112Z,12.07
2023-09-28T03:43:59.927Z,12.07
2023-09-28T03:46:28.374Z,12.08
2023-09-28T03:48:56.190Z,12.09
2023-09-28T03:51:24.300Z,12.07
2023-09-28T03:53:52.302Z,12.08
2023-09-28T03:56:22.587Z,12.09
2023-09-28T03:58:50.406Z,12.07
2023-09-28T04:01:18.465Z,12.07
2023-09-28T04:03:46.304Z,12.07
2023-09-28T04:06:14.271Z,12.07
2023-09-28T04:08:42.128Z,12.05
2023-09-28T04:11:10.026Z,12.04
2023-09-28T04:13:39.244Z,12.03
2023-09-28T04:16:07.091Z,12.01
2023-09-28T04:18:34.977Z,12.00
2023-09-28T04:21:02.924Z,11.99
2023-09-28T04:23:31.272Z,12.00
2023-09-28T04:25:59.114Z,11.99
2023-09-28T04:28:26.961Z,12.00
2023-09-28T04:30:56.083Z,11.98
2023-09-28T04:33:23.873Z,11.96
2023-09-28T04:35:51.743Z,11.95
2023-09-28T04:38:19.604Z,11.95
2023-09-28T04:40:47.467Z,11.95
2023-09-28T04:43:15.366Z,11.94
2023-09-28T04:45:43.244Z,11.94
2023-09-28T04:48:12.385Z,11.95
2023-09-28T04:50:40.496Z,11.95
2023-09-28T04:53:08.772Z,11.97
2023-09-28T04:55:36.570Z,11.98
2023-09-28T04:58:04.617Z,11.99
2023-09-28T05:00:33.935Z,12.01
2023-09-28T05:03:04.954Z,12.02
2023-09-28T05:05:34.619Z,12.05
2023-09-28T05:08:03.197Z,12.07
2023-09-28T05:10:31.175Z,12.10
2023-09-28T05:12:59.536Z,12.15
2023-09-28T05:15:27.385Z,12.21
2023-09-28T05:17:55.357Z,12.24
2023-09-28T05:20:25.085Z,12.27
2023-09-28T05:22:55.678Z,12.30
2023-09-28T05:25:23.590Z,12.31
2023-09-28T05:27:51.476Z,12.33
2023-09-28T05:30:19.530Z,12.33
2023-09-28T05:32:47.359Z,12.35
2023-09-28T05:35:16.273Z,12.37
2023-09-28T05:37:44.106Z,12.37
2023-09-28T05:40:14.008Z,12.39
2023-09-28T05:42:42.228Z,12.41
2023-09-28T05:45:11.372Z,12.42
2023-09-28T05:47:39.221Z,12.43
2023-09-28T05:50:08.475Z,12.45
2023-09-28T05:52:36.417Z,12.48
2023-09-28T05:55:04.775Z,12.49
2023-09-28T05:57:34.074Z,12.53
2023-09-28T06:00:08.145Z,12.55
2023-09-28T06:02:36.115Z,12.60
2023-09-28T06:05:05.696Z,12.65
2023-09-28T06:07:33.572Z,12.67
2023-09-28T06:10:01.407Z,12.70
2023-09-28T06:12:29.490Z,12.73
2023-09-28T06:14:59.854Z,12.78
2023-09-28T06:17:27.749Z,12.81
2023-09-28T06:19:58.288Z,12.86
2023-09-28T06:22:26.763Z,12.89
2023-09-28T06:24:55.937Z,12.93
2023-09-28T06:27:23.746Z,12.98
2023-09-28T06:29:54.517Z,13.02
2023-09-28T06:32:24.698Z,13.07
2023-09-28T06:34:52.756Z,13.11
2023-09-28T06:37:20.558Z,13.17
2023-09-28T06:39:48.458Z,13.22
2023-09-28T06:42:34.850Z,13.28
2023-09-28T06:45:04.902Z,13.33
2023-09-28T06:47:50.643Z,13.37
2023-09-28T06:50:21.978Z,13.44
2023-09-28T06:52:52.863Z,13.48
2023-09-28T06:55:20.832Z,13.53
2023-09-28T06:57:49.795Z,13.59
2023-09-28T07:00:18.854Z,13.63
2023-09-28T07:02:48.719Z,13.68
2023-09-28T07:05:17.712Z,13.73
2023-09-28T07:07:49.885Z,13.77
2023-09-28T07:10:18.911Z,13.82
2023-09-28T07:12:48.416Z,13.87
2023-09-28T07:15:16.264Z,13.90
2023-09-28T07:17:44.245Z,13.93
2023-09-28T07:20:16.316Z,13.98
2023-09-28T07:22:44.308Z,14.03
2023-09-28T07:25:12.224Z,14.08
2023-09-28T07:27:40.332Z,14.15
2023-09-28T07:30:09.816Z,14.20
2023-09-28T07:32:37.852Z,14.25
2023-09-28T07:35:06.792Z,14.29
2023-09-28T07:37:36.057Z,14.32
2023-09-28T07:40:05.672Z,14.36
2023-09-28T07:42:33.536Z,14.40
2023-09-28T07:45:01.334Z,14.42
2023-09-28T07:47:30.145Z,14.46
2023-09-28T07:49:58.173Z,14.49
2023-09-28T07:52:26.336Z,14.53
2023-09-28T07:54:55.896Z,14.57
2023-09-28T07:57:23.717Z,14.61
2023-09-28T07:59:51.513Z,14.67
2023-09-28T08:02:20.074Z,14.74
2023-09-28T08:04:50.714Z,14.86
2023-09-28T08:07:18.728Z,14.95
2023-09-28T08:09:46.678Z,15.02
2023-09-28T08:12:16.039Z,15.10
2023-09-28T08:14:43.887Z,15.15
2023-09-28T08:17:13.709Z,15.23
2023-09-28T08:19:41.594Z,15.28
2023-09-28T08:22:09.405Z,15.34
2023-09-28T08:24:37.237Z,15.39
2023-09-28T08:27:05.462Z,15.46
2023-09-28T08:29:35.881Z,15.51
2023-09-28T08:32:03.980Z,15.58
2023-09-28T08:34:38.742Z,15.67
2023-09-28T08:37:07.684Z,15.74
2023-09-28T08:39:37.208Z,15.85
2023-09-28T08:42:08.268Z,15.96
2023-09-28T08:44:39.701Z,16.11
2023-09-28T08:47:16.869Z,16.21
2023-09-28T08:49:46.513Z,16.30
2023-09-28T08:52:16.110Z,16.38
2023-09-28T08:54:44.289Z,16.53
2023-09-28T08:57:13.129Z,16.63
2023-09-28T08:59:43.616Z,16.73
2023-09-28T09:02:13.109Z,16.84
2023-09-28T09:04:41.088Z,16.96
2023-09-28T09:07:08.942Z,17.09
2023-09-28T09:09:38.564Z,17.20
2023-09-28T09:12:10.330Z,17.28
2023-09-28T09:14:39.061Z,17.38
2023-09-28T09:17:11.862Z,17.47
2023-09-28T09:19:41.930Z,17.55
2023-09-28T09:22:09.899Z,17.63
2023-09-28T09:24:54.976Z,17.75
2023-09-28T09:27:27.452Z,17.88
2023-09-28T09:29:58.127Z,17.98
2023-09-28T09:32:28.025Z,18.08
2023-09-28T09:34:56.536Z,18.14
2023-09-28T09:37:24.676Z,18.24
2023-09-28T09:39:52.492Z,18.36
2023-09-28T09:42:29.739Z,18.48
2023-09-28T09:44:57.601Z,18.58
2023-09-28T09:47:28.404Z,18.66
2023-09-28T09:49:58.098Z,18.75
2023-09-28T09:52:27.970Z,18.84
2023-09-28T09:54:56.009Z,18.91
2023-09-28T09:57:25.996Z,19.00
2023-09-28T09:59:55.974Z,19.12
2023-09-28T10:02:26.611Z,19.24
2023-09-28T10:04:56.761Z,19.35
2023-09-28T10:07:46.560Z,19.52
2023-09-28T10:10:16.739Z,19.65
2023-09-28T10:12:44.796Z,19.78
2023-09-28T10:15:14.255Z,19.90
2023-09-28T10:17:43.062Z,20.02
2023-09-28T10:20:14.568Z,20.17
2023-09-28T10:22:42.801Z,20.25
2023-09-28T10:25:13.248Z,20.35
2023-09-28T10:27:41.639Z,20.47
2023-09-28T10:30:20.325Z,20.58
2023-09-28T10:32:48.692Z,20.68
2023-09-28T10:35:29.498Z,20.78
2023-09-28T10:38:28.726Z,20.87
2023-09-28T10:41:08.012Z,20.97
2023-09-28T10:43:37.777Z,21.10
2023-09-28T10:46:06.894Z,21.23
2023-09-28T10:48:40.945Z,21.35
2023-09-28T10:51:14.107Z,21.48
2023-09-28T10:53:42.550Z,21.56
2023-09-28T10:56:12.211Z,21.65
2023-09-28T10:58:42.126Z,21.74
2023-09-28T11:01:10.244Z,21.84
2023-09-28T11:03:39.990Z,21.90
2023-09-28T11:06:11.193Z,22.01
2023-09-28T11:08:41.714Z,22.10
2023-09-28T11:11:09.667Z,22.17
2023-09-28T11:13:37.576Z,22.27
2023-09-28T11:16:05.954Z,22.37
2023-09-28T11:18:33.878Z,22.49
2023-09-28T11:21:04.506Z,22.58
2023-09-28T11:23:32.435Z,22.69
2023-09-28T11:26:01.851Z,22.77
2023-09-28T11:28:30.864Z,22.92
2023-09-28T11:31:10.088Z,23.01
2023-09-28T11:33:38.533Z,23.05
2023-09-28T11:36:07.279Z,23.09
2023-09-28T11:38:35.659Z,23.11
2023-09-28T11:41:06.376Z,23.15
2023-09-28T11:43:35.833Z,23.23
2023-09-28T11:46:04.611Z,23.33
2023-09-28T11:48:32.478Z,23.42
2023-09-28T11:51:00.824Z,23.55
2023-09-28T11:53:28.643Z,23.67
2023-09-28T11:55:56.619Z,23.73
2023-09-28T11:58:27.055Z,23.77
2023-09-28T12:00:55.065Z,23.86
2023-09-28T12:03:23.061Z,23.94
2023-09-28T12:05:51.002Z,24.03
2023-09-28T12:08:19.144Z,24.11
2023-09-28T12:10:46.998Z,24.16
2023-09-28T12:13:14.887Z,24.22
2023-09-28T12:15:44.141Z,24.27
2023-09-28T12:18:12.184Z,24.34
2023-09-28T12:20:40.077Z,24.39
2023-09-28T12:23:08.016Z,24.43
2023-09-28T12:25:36.657Z,24.49
2023-09-28T12:28:04.740Z,24.51
2023-09-28T12:30:33.108Z,24.56
2023-09-28T12:33:03.147Z,24.61
2023-09-28T12:35:31.035Z,24.63
2023-09-28T12:37:59.013Z,24.70
2023-09-28T12:40:26.843Z,24.70
2023-09-28T12:42:54.658Z,24.73
2023-09-28T12:45:22.584Z,24.77
2023-09-28T12:47:50.510Z,24.82
2023-09-28T12:50:20.231Z,24.89
2023-09-28T12:52:49.147Z,24.98
2023-09-28T12:55:17.047Z,25.00
2023-09-28T12:57:45.209Z,25.02
2023-09-28T13:00:14.435Z,25.11
2023-09-28T13:02:44.374Z,25.21
2023-09-28T13:05:12.916Z,25.32
2023-09-28T13:07:42.365Z,25.33
2023-09-28T13:10:13.775Z,25.41
2023-09-28T13:12:42.775Z,25.47
2023-09-28T13:15:13.205Z,25.52
2023-09-28T13:17:41.374Z,25.53
2023-09-28T13:20:12.437Z,25.59
2023-09-28T13:22:41.794Z,25.70
2023-09-28T13:25:11.012Z,25.77
2023-09-28T13:27:38.850Z,25.87
2023-09-28T13:30:12.738Z,25.89
2023-09-28T13:32:40.806Z,25.89
2023-09-28T13:35:12.088Z,25.83
2023-09-28T13:37:40.303Z,25.88
2023-09-28T13:40:18.167Z,25.94
2023-09-28T13:42:46.269Z,26.01
2023-09-28T13:45:14.355Z,26.10
2023-09-28T13:47:43.335Z,26.17
2023-09-28T13:50:12.396Z,26.27
2023-09-28T13:52:40.383Z,26.37
2023-09-28T13:55:10.613Z,26.43
2023-09-28T13:57:40.564Z,26.43
2023-09-28T14:00:15.333Z,26.42
2023-09-28T14:02:43.832Z,26.38
2023-09-28T14:05:11.962Z,26.40
2023-09-28T14:07:39.770Z,26.37
2023-09-28T14:10:10.250Z,26.43
2023-09-28T14:12:38.090Z,26.47
2023-09-28T14:15:07.934Z,26.50
2023-09-28T14:17:38.744Z,26.54
2023-09-28T14:20:11.896Z,26.42
2023-09-28T14:22:40.722Z,26.42
2023-09-28T14:25:10.920Z,26.37
2023-09-28T14:27:38.799Z,26.38
2023-09-28T14:30:07.997Z,26.35
2023-09-28T14:32:36.606Z,26.35
2023-09-28T14:35:05.189Z,26.34
2023-09-28T14:37:33.663Z,26.26
2023-09-28T14:40:01.871Z,26.14
2023-09-28T14:42:32.898Z,26.07
2023-09-28T14:45:00.960Z,26.00
2023-09-28T14:47:29.327Z,25.94
2023-09-28T14:49:58.492Z,25.90
2023-09-28T14:52:26.310Z,25.79
2023-09-28T14:54:54.084Z,25.70
2023-09-28T14:57:21.847Z,25.67
2023-09-28T14:59:51.255Z,25.54
2023-09-28T15:02:19.194Z,25.44
2023-09-28T15:04:47.049Z,25.38
2023-09-28T15:07:14.814Z,25.34
2023-09-28T15:09:43.174Z,25.28
2023-09-28T15:12:11.015Z,25.23
2023-09-28T15:14:39.593Z,25.20
2023-09-28T15:17:08.800Z,25.15
2023-09-28T15:19:36.642Z,25.13
2023-09-28T15:22:04.829Z,25.11
2023-09-28T15:24:34.075Z,25.11
2023-09-28T15:27:01.980Z,25.02
2023-09-28T15:29:29.881Z,24.96
2023-09-28T15:31:58.103Z,24.93
2023-09-28T15:34:27.338Z,24.86
2023-09-28T15:36:55.212Z,24.83
2023-09-28T15:39:23.021Z,24.80
2023-09-28T15:41:50.933Z,24.76
2023-09-28T15:44:18.822Z,24.75
2023-09-28T15:46:47.125Z,24.73
2023-09-28T15:49:15.923Z,24.72
2023-09-28T15:51:45.242Z,24.68
2023-09-28T15:54:13.161Z,24.63
2023-09-28T15:56:41.031Z,24.59
2023-09-28T15:59:09.014Z,24.56
2023-09-28T16:01:38.651Z,24.55
2023-09-28T16:04:07.561Z,24.51
2023-09-28T16:06:35.533Z,24.43
2023-09-28T16:09:05.398Z,24.38
2023-09-28T16:11:33.331Z,24.31
2023-09-28T16:14:01.363Z,24.24
2023-09-28T16:16:29.548Z,24.18
2023-09-28T16:18:57.494Z,24.11
2023-09-28T16:21:25.379Z,24.01
2023-09-28T16:23:54.863Z,23.91
2023-09-28T16:26:25.271Z,23.74
2023-09-28T16:28:53.343Z,23.55
2023-09-28T16:31:21.163Z,23.36
2023-09-28T16:33:49.023Z,23.19
2023-09-28T16:36:16.845Z,23.00
2023-09-28T16:38:44.751Z,22.81
2023-09-28T16:41:12.666Z,22.63
2023-09-28T16:43:41.876Z,22.43
2023-09-28T16:46:09.739Z,22.25
2023-09-28T16:48:38.011Z,22.09
2023-09-28T16:51:05.897Z,21.93
2023-09-28T16:53:33.719Z,21.79
2023-09-28T16:56:01.618Z,21.67
2023-09-28T16:58:29.545Z,21.54
2023-09-28T17:00:59.267Z,21.39
2023-09-28T17:03:27.421Z,21.25
2023-09-28T17:05:55.329Z,21.12
2023-09-28T17:08:23.237Z,21.00
2023-09-28T17:10:52.221Z,20.88
2023-09-28T17:13:20.067Z,20.76
2023-09-28T17:15:49.720Z,20.66
2023-09-28T17:18:21.768Z,20.56
2023-09-28T17:20:50.541Z,20.44
2023-09-28T17:23:18.567Z,20.33
2023-09-28T17:25:46.665Z,20.23
2023-09-28T17:28:14.552Z,20.13
2023-09-28T17:30:42.487Z,20.03
2023-09-28T17:33:10.815Z,19.92
2023-09-28T17:35:40.082Z,19.82
2023-09-28T17:38:08.060Z,19.76
2023-09-28T17:40:35.937Z,19.67
2023-09-28T17:43:04.414Z,19.60
2023-09-28T17:45:33.743Z,19.54
2023-09-28T17:48:01.806Z,19.48
2023-09-28T17:50:29.762Z,19.42
2023-09-28T17:52:59.082Z,19.38
2023-09-28T17:55:26.865Z,19.35
2023-09-28T17:57:55.072Z,19.32
2023-09-28T18:00:23.194Z,19.27
2023-09-28T18:02:51.184Z,19.22
2023-09-28T18:05:19.111Z,19.17
2023-09-28T18:07:46.895Z,19.12
2023-09-28T18:10:17.069Z,19.05
2023-09-28T18:12:45.456Z,18.99
2023-09-28T18:15:14.320Z,18.94
2023-09-28T18:17:42.263Z,18.90
2023-09-28T18:20:10.703Z,18.85
2023-09-28T18:22:38.845Z,18.80
2023-09-28T18:25:09.016Z,18.75
2023-09-28T18:27:38.205Z,18.69
2023-09-28T18:30:09.797Z,18.64
2023-09-28T18:32:37.843Z,18.59
2023-09-28T18:35:07.709Z,18.53
2023-09-28T18:37:35.897Z,18.47
2023-09-28T18:40:03.791Z,18.43
2023-09-28T18:42:31.686Z,18.38
2023-09-28T18:45:01.360Z,18.33
2023-09-28T18:47:29.718Z,18.29
2023-09-28T18:49:58.405Z,18.24
2023-09-28T18:52:26.230Z,18.19
2023-09-28T18:54:54.077Z,18.15
2023-09-28T18:57:22.455Z,18.10
2023-09-28T18:59:50.757Z,18.07
2023-09-28T19:02:20.057Z,18.06
2023-09-28T19:04:48.020Z,18.04
2023-09-28T19:07:21.295Z,18.00
2023-09-28T19:09:49.282Z,17.94
2023-09-28T19:12:17.165Z,17.90
2023-09-28T19:14:45.208Z,17.84
2023-09-28T19:17:13.186Z,17.80
2023-09-28T19:19:42.541Z,17.75
2023-09-28T19:22:10.361Z,17.67
2023-09-28T19:24:38.452Z,17.63
2023-09-28T19:27:07.531Z,17.56
2023-09-28T19:29:35.413Z,17.51
2023-09-28T19:32:03.240Z,17.48
2023-09-28T19:34:31.095Z,17.40
2023-09-28T19:37:00.441Z,17.36
2023-09-28T19:39:30.046Z,17.33
2023-09-28T19:41:57.996Z,17.30
2023-09-28T19:44:26.612Z,17.27
2023-09-28T19:46:54.495Z,17.23
2023-09-28T19:49:22.947Z,17.19
2023-09-28T19:51:51.312Z,17.15
2023-09-28T19:54:20.453Z,17.09
2023-09-28T19:56:48.491Z,17.03
2023-09-28T19:59:16.872Z,16.99
2023-09-28T20:01:45.133Z,16.96
2023-09-28T20:04:13.012Z,16.92
2023-09-28T20:06:40.842Z,16.88
2023-09-28T20:09:08.707Z,16.84
2023-09-28T20:11:38.807Z,16.79
2023-09-28T20:14:06.650Z,16.75
2023-09-28T20:16:34.558Z,16.70
2023-09-28T20:19:02.443Z,16.63
2023-09-28T20:21:30.217Z,16.61
2023-09-28T20:23:58.614Z,16.56
2023-09-28T20:26:26.797Z,16.52
2023-09-28T20:28:56.077Z,16.49
2023-09-28T20:31:23.897Z,16.47
2023-09-28T20:33:53.057Z,16.43
2023-09-28T20:36:21.311Z,16.40
2023-09-28T20:38:49.221Z,16.38
2023-09-28T20:41:17.051Z,16.35
2023-09-28T20:43:44.895Z,16.30
2023-09-28T20:46:18.048Z,16.25
2023-09-28T20:48:46.343Z,16.23
2023-09-28T20:51:15.367Z,16.20
2023-09-28T20:53:43.314Z,16.17
2023-09-28T20:56:15.457Z,16.14
2023-09-28T20:58:44.004Z,16.10
2023-09-28T21:01:12.078Z,16.06
2023-09-28T21:03:41.561Z,16.02
2023-09-28T21:06:11.453Z,16.00
2023-09-28T21:08:40.655Z,15.97
2023-09-28T21:11:08.714Z,15.94
2023-09-28T21:13:36.564Z,15.89
2023-09-28T21:16:04.588Z,15.86
2023-09-28T21:18:32.682Z,15.83
2023-09-28T21:21:01.974Z,15.82
2023-09-28T21:23:29.886Z,15.80
2023-09-28T21:25:57.739Z,15.80
2023-09-28T21:28:25.584Z,15.79
2023-09-28T21:30:53.368Z,15.75
2023-09-28T21:33:21.337Z,15.74
2023-09-28T21:35:49.269Z,15.72
2023-09-28T21:38:18.507Z,15.67
2023-09-28T21:40:46.373Z,15.63
2023-09-28T21:43:14.172Z,15.59
2023-09-28T21:45:42.014Z,15.54
2023-09-28T21:48:09.891Z,15.51
2023-09-28T21:50:37.813Z,15.48
2023-09-28T21:53:06.009Z,15.45
2023-09-28T21:55:35.179Z,15.41
2023-09-28T21:58:03.004Z,15.38
2023-09-28T22:00:36.644Z,15.34
2023-09-28T22:06:36.085Z,15.27
2023-09-28T22:09:06.387Z,15.24
2023-09-28T22:11:34.573Z,15.23
2023-09-28T22:14:03.038Z,15.19
2023-09-28T22:16:30.989Z,15.16
2023-09-28T22:18:59.114Z,15.13
2023-09-28T22:21:27.532Z,15.09
2023-09-28T22:23:57.280Z,15.07
2023-09-28T22:26:25.225Z,15.03
2023-09-28T22:28:53.260Z,15.00
2023-09-28T22:31:21.290Z,14.97
2023-09-28T22:33:49.222Z,14.92
2023-09-28T22:36:17.036Z,14.90
2023-09-28T22:38:45.133Z,14.88
2023-09-28T22:41:16.867Z,14.86
2023-09-28T22:43:44.911Z,14.85
2023-09-28T22:46:12.772Z,14.83
2023-09-28T22:48:40.686Z,14.80
2023-09-28T22:51:08.510Z,14.77
2023-09-28T22:53:36.987Z,14.74
2023-09-28T22:56:04.890Z,14.74
2023-09-28T22:58:34.121Z,14.73
2023-09-28T23:01:01.936Z,14.71
2023-09-28T23:03:29.894Z,14.70
2023-09-28T23:05:57.787Z,14.69
2023-09-28T23:08:25.677Z,14.69
2023-09-28T23:10:55.345Z,14.68
2023-09-28T23:13:23.197Z,14.67
2023-09-28T23:15:52.392Z,14.65
2023-09-28T23:18:20.306Z,14.64
2023-09-28T23:20:48.220Z,14.64
2023-09-28T23:23:16.855Z,14.62
2023-09-28T23:25:44.872Z,14.58
2023-09-28T23:28:12.693Z,14.55
2023-09-28T23:30:40.809Z,14.54
2023-09-28T23:33:10.293Z,14.51
2023-09-28T23:35:38.877Z,14.51
2023-09-28T23:38:07.931Z,14.49
2023-09-28T23:40:35.778Z,14.49
2023-09-28T23:43:03.885Z,14.46
2023-09-28T23:45:35.184Z,14.44
2023-09-28T23:48:05.494Z,14.42
2023-09-28T23:50:35.911Z,14.42
2023-09-28T23:53:06.450Z,14.41
2023-09-28T23:55:35.177Z,14.42
2023-09-28T23:58:03.510Z,14.42
